sensor_id;sensor_type;location;lat;lon;timestamp;P1;durP1;ratioP1;P2;durP2;ratioP2
25299;SDS011;13241;51.208;4.432;2023-05-01T00:00:55;1.73;;;1.50;;
25299;SDS011;13241;51.208;4.432;2023-05-01T00:03:24;4.97;;;1.40;;
25299;SDS011;13241;51.208;4.432;2023-05-01T00:05:57;5.13;;;1.63;;
25299;SDS011;13241;51.208;4.432;2023-05-01T00:08:25;3.88;;;1.48;;
25299;SDS011;13241;51.208;4.432;2023-05-01T00:10:52;2.28;;;1.48;;
25299;SDS011;13241;51.208;4.432;2023-05-01T00:13:20;3.42;;;1.45;;
25299;SDS011;13241;51.208;4.432;2023-05-01T00:15:49;2.75;;;1.70;;
25299;SDS011;13241;51.208;4.432;2023-05-01T00:18:17;4.07;;;1.70;;
25299;SDS011;13241;51.208;4.432;2023-05-01T00:20:44;2.13;;;1.27;;
25299;SDS011;13241;51.208;4.432;2023-05-01T00:23:12;3.17;;;1.52;;
25299;SDS011;13241;51.208;4.432;2023-05-01T00:25:39;1.45;;;1.23;;
25299;SDS011;13241;51.208;4.432;2023-05-01T00:28:06;3.65;;;1.65;;
25299;SDS011;13241;51.208;4.432;2023-05-01T00:30:34;2.38;;;1.40;;
25299;SDS011;13241;51.208;4.432;2023-05-01T00:33:02;1.42;;;1.20;;
25299;SDS011;13241;51.208;4.432;2023-05-01T00:35:29;2.60;;;1.33;;
25299;SDS011;13241;51.208;4.432;2023-05-01T00:37:57;3.53;;;1.67;;
25299;SDS011;13241;51.208;4.432;2023-05-01T00:40:24;7.47;;;1.77;;
25299;SDS011;13241;51.208;4.432;2023-05-01T00:42:52;2.22;;;1.45;;
25299;SDS011;13241;51.208;4.432;2023-05-01T00:45:21;2.28;;;1.42;;
25299;SDS011;13241;51.208;4.432;2023-05-01T00:47:49;3.33;;;1.23;;
25299;SDS011;13241;51.208;4.432;2023-05-01T00:50:16;1.95;;;1.55;;
25299;SDS011;13241;51.208;4.432;2023-05-01T00:52:44;6.40;;;1.42;;
25299;SDS011;13241;51.208;4.432;2023-05-01T00:55:12;2.92;;;1.20;;
25299;SDS011;13241;51.208;4.432;2023-05-01T00:57:39;1.65;;;1.48;;
25299;SDS011;13241;51.208;4.432;2023-05-01T01:00:07;2.17;;;1.10;;
25299;SDS011;13241;51.208;4.432;2023-05-01T01:02:36;2.83;;;1.60;;
25299;SDS011;13241;51.208;4.432;2023-05-01T01:05:04;3.60;;;1.48;;
25299;SDS011;13241;51.208;4.432;2023-05-01T01:07:44;3.20;;;1.50;;
25299;SDS011;13241;51.208;4.432;2023-05-01T01:15:28;2.28;;;1.10;;
25299;SDS011;13241;51.208;4.432;2023-05-01T01:18:10;1.80;;;1.20;;
25299;SDS011;13241;51.208;4.432;2023-05-01T01:20:40;3.25;;;1.65;;
25299;SDS011;13241;51.208;4.432;2023-05-01T01:28:41;1.60;;;1.23;;
25299;SDS011;13241;51.208;4.432;2023-05-01T01:31:20;7.38;;;2.00;;
25299;SDS011;13241;51.208;4.432;2023-05-01T01:34:01;3.22;;;1.30;;
25299;SDS011;13241;51.208;4.432;2023-05-01T01:36:40;2.45;;;1.40;;
25299;SDS011;13241;51.208;4.432;2023-05-01T01:39:10;1.85;;;1.33;;
25299;SDS011;13241;51.208;4.432;2023-05-01T01:41:39;2.15;;;1.55;;
25299;SDS011;13241;51.208;4.432;2023-05-01T01:44:11;2.97;;;1.48;;
25299;SDS011;13241;51.208;4.432;2023-05-01T01:46:47;3.30;;;1.58;;
25299;SDS011;13241;51.208;4.432;2023-05-01T01:49:17;1.23;;;1.13;;
25299;SDS011;13241;51.208;4.432;2023-05-01T01:51:46;9.05;;;1.85;;
25299;SDS011;13241;51.208;4.432;2023-05-01T01:54:17;2.30;;;1.52;;
25299;SDS011;13241;51.208;4.432;2023-05-01T01:56:45;1.52;;;1.27;;
25299;SDS011;13241;51.208;4.432;2023-05-01T01:59:14;4.07;;;1.85;;
25299;SDS011;13241;51.208;4.432;2023-05-01T02:01:42;3.25;;;1.80;;
25299;SDS011;13241;51.208;4.432;2023-05-01T02:04:10;2.08;;;1.52;;
25299;SDS011;13241;51.208;4.432;2023-05-01T02:06:39;2.08;;;1.25;;
25299;SDS011;13241;51.208;4.432;2023-05-01T02:09:07;2.80;;;1.50;;
25299;SDS011;13241;51.208;4.432;2023-05-01T02:11:35;3.95;;;1.75;;
25299;SDS011;13241;51.208;4.432;2023-05-01T02:14:04;3.05;;;1.98;;
25299;SDS011;13241;51.208;4.432;2023-05-01T02:16:32;3.35;;;1.70;;
25299;SDS011;13241;51.208;4.432;2023-05-01T02:19:01;3.20;;;1.80;;
25299;SDS011;13241;51.208;4.432;2023-05-01T02:21:29;1.95;;;1.35;;
25299;SDS011;13241;51.208;4.432;2023-05-01T02:23:59;1.95;;;1.60;;
25299;SDS011;13241;51.208;4.432;2023-05-01T02:26:27;7.40;;;2.03;;
25299;SDS011;13241;51.208;4.432;2023-05-01T02:28:55;1.77;;;1.42;;
25299;SDS011;13241;51.208;4.432;2023-05-01T02:31:23;2.47;;;1.63;;
25299;SDS011;13241;51.208;4.432;2023-05-01T02:33:51;5.82;;;1.55;;
25299;SDS011;13241;51.208;4.432;2023-05-01T02:36:18;1.65;;;1.20;;
25299;SDS011;13241;51.208;4.432;2023-05-01T02:38:46;6.97;;;2.00;;
25299;SDS011;13241;51.208;4.432;2023-05-01T02:41:16;2.03;;;1.65;;
25299;SDS011;13241;51.208;4.432;2023-05-01T02:43:47;2.10;;;1.63;;
25299;SDS011;13241;51.208;4.432;2023-05-01T02:46:19;5.15;;;1.88;;
25299;SDS011;13241;51.208;4.432;2023-05-01T02:48:46;2.78;;;1.63;;
25299;SDS011;13241;51.208;4.432;2023-05-01T02:51:14;5.30;;;1.70;;
25299;SDS011;13241;51.208;4.432;2023-05-01T02:53:41;1.73;;;1.55;;
25299;SDS011;13241;51.208;4.432;2023-05-01T02:56:17;3.25;;;2.03;;
25299;SDS011;13241;51.208;4.432;2023-05-01T02:58:46;2.95;;;1.90;;
25299;SDS011;13241;51.208;4.432;2023-05-01T03:01:14;4.35;;;2.13;;
25299;SDS011;13241;51.208;4.432;2023-05-01T03:03:43;5.70;;;1.77;;
25299;SDS011;13241;51.208;4.432;2023-05-01T03:06:10;4.90;;;1.77;;
25299;SDS011;13241;51.208;4.432;2023-05-01T03:08:39;3.53;;;2.13;;
25299;SDS011;13241;51.208;4.432;2023-05-01T03:11:07;2.80;;;1.70;;
25299;SDS011;13241;51.208;4.432;2023-05-01T03:13:34;3.05;;;1.83;;
25299;SDS011;13241;51.208;4.432;2023-05-01T03:16:02;2.42;;;1.95;;
25299;SDS011;13241;51.208;4.432;2023-05-01T03:18:29;3.80;;;1.70;;
25299;SDS011;13241;51.208;4.432;2023-05-01T03:20:57;3.08;;;1.77;;
25299;SDS011;13241;51.208;4.432;2023-05-01T03:23:25;3.65;;;2.15;;
25299;SDS011;13241;51.208;4.432;2023-05-01T03:25:53;8.32;;;2.10;;
25299;SDS011;13241;51.208;4.432;2023-05-01T03:28:21;2.47;;;1.73;;
25299;SDS011;13241;51.208;4.432;2023-05-01T03:30:51;4.78;;;1.95;;
25299;SDS011;13241;51.208;4.432;2023-05-01T03:33:18;3.42;;;2.13;;
25299;SDS011;13241;51.208;4.432;2023-05-01T03:35:46;5.85;;;2.25;;
25299;SDS011;13241;51.208;4.432;2023-05-01T03:38:14;4.60;;;2.17;;
25299;SDS011;13241;51.208;4.432;2023-05-01T03:41:00;9.13;;;2.03;;
25299;SDS011;13241;51.208;4.432;2023-05-01T03:43:45;5.82;;;1.92;;
25299;SDS011;13241;51.208;4.432;2023-05-01T03:46:27;3.15;;;2.15;;
25299;SDS011;13241;51.208;4.432;2023-05-01T03:48:56;7.25;;;2.85;;
25299;SDS011;13241;51.208;4.432;2023-05-01T03:51:24;3.95;;;2.10;;
25299;SDS011;13241;51.208;4.432;2023-05-01T03:53:53;3.00;;;1.98;;
25299;SDS011;13241;51.208;4.432;2023-05-01T03:56:28;3.63;;;1.92;;
25299;SDS011;13241;51.208;4.432;2023-05-01T03:59:01;2.53;;;1.88;;
25299;SDS011;13241;51.208;4.432;2023-05-01T04:01:28;5.75;;;2.20;;
25299;SDS011;13241;51.208;4.432;2023-05-01T04:03:58;4.85;;;1.92;;
25299;SDS011;13241;51.208;4.432;2023-05-01T04:06:28;5.47;;;2.20;;
25299;SDS011;13241;51.208;4.432;2023-05-01T04:08:55;5.05;;;1.90;;
25299;SDS011;13241;51.208;4.432;2023-05-01T04:11:23;7.13;;;2.30;;
25299;SDS011;13241;51.208;4.432;2023-05-01T04:13:50;4.60;;;2.38;;
25299;SDS011;13241;51.208;4.432;2023-05-01T04:16:18;4.70;;;2.40;;
25299;SDS011;13241;51.208;4.432;2023-05-01T04:18:45;3.50;;;2.35;;
25299;SDS011;13241;51.208;4.432;2023-05-01T04:21:13;5.18;;;2.38;;
25299;SDS011;13241;51.208;4.432;2023-05-01T04:23:44;3.92;;;2.13;;
25299;SDS011;13241;51.208;4.432;2023-05-01T04:26:11;5.03;;;2.58;;
25299;SDS011;13241;51.208;4.432;2023-05-01T04:28:38;4.10;;;2.20;;
25299;SDS011;13241;51.208;4.432;2023-05-01T04:31:08;10.10;;;2.72;;
25299;SDS011;13241;51.208;4.432;2023-05-01T04:33:36;4.60;;;2.22;;
25299;SDS011;13241;51.208;4.432;2023-05-01T04:36:04;2.70;;;1.90;;
25299;SDS011;13241;51.208;4.432;2023-05-01T04:38:32;3.28;;;2.17;;
25299;SDS011;13241;51.208;4.432;2023-05-01T04:41:06;2.45;;;2.05;;
25299;SDS011;13241;51.208;4.432;2023-05-01T04:43:33;6.03;;;2.78;;
25299;SDS011;13241;51.208;4.432;2023-05-01T04:46:02;2.95;;;1.98;;
25299;SDS011;13241;51.208;4.432;2023-05-01T04:48:29;3.72;;;2.17;;
25299;SDS011;13241;51.208;4.432;2023-05-01T04:50:57;6.60;;;2.75;;
25299;SDS011;13241;51.208;4.432;2023-05-01T04:53:28;6.90;;;2.50;;
25299;SDS011;13241;51.208;4.432;2023-05-01T04:55:55;8.82;;;2.72;;
25299;SDS011;13241;51.208;4.432;2023-05-01T04:58:23;5.40;;;2.70;;
25299;SDS011;13241;51.208;4.432;2023-05-01T05:00:57;10.00;;;3.10;;
25299;SDS011;13241;51.208;4.432;2023-05-01T05:03:24;5.55;;;2.58;;
25299;SDS011;13241;51.208;4.432;2023-05-01T05:05:52;4.47;;;2.22;;
25299;SDS011;13241;51.208;4.432;2023-05-01T05:08:20;8.77;;;2.70;;
25299;SDS011;13241;51.208;4.432;2023-05-01T05:10:56;5.88;;;2.33;;
25299;SDS011;13241;51.208;4.432;2023-05-01T05:13:31;6.47;;;2.47;;
25299;SDS011;13241;51.208;4.432;2023-05-01T05:16:08;6.22;;;2.70;;
25299;SDS011;13241;51.208;4.432;2023-05-01T05:18:35;6.43;;;2.72;;
25299;SDS011;13241;51.208;4.432;2023-05-01T05:21:07;3.67;;;2.40;;
25299;SDS011;13241;51.208;4.432;2023-05-01T05:23:40;7.00;;;2.88;;
25299;SDS011;13241;51.208;4.432;2023-05-01T05:26:07;2.80;;;2.10;;
25299;SDS011;13241;51.208;4.432;2023-05-01T05:28:35;3.38;;;2.28;;
25299;SDS011;13241;51.208;4.432;2023-05-01T05:31:03;6.22;;;2.70;;
25299;SDS011;13241;51.208;4.432;2023-05-01T05:33:31;3.85;;;2.25;;
25299;SDS011;13241;51.208;4.432;2023-05-01T05:35:58;6.32;;;2.35;;
25299;SDS011;13241;51.208;4.432;2023-05-01T05:38:32;7.30;;;3.45;;
25299;SDS011;13241;51.208;4.432;2023-05-01T05:41:01;6.28;;;2.55;;
25299;SDS011;13241;51.208;4.432;2023-05-01T05:43:29;12.23;;;2.58;;
25299;SDS011;13241;51.208;4.432;2023-05-01T05:45:58;3.13;;;2.30;;
25299;SDS011;13241;51.208;4.432;2023-05-01T05:48:27;7.97;;;3.75;;
25299;SDS011;13241;51.208;4.432;2023-05-01T05:50:54;2.90;;;2.13;;
25299;SDS011;13241;51.208;4.432;2023-05-01T05:53:22;5.18;;;2.63;;
25299;SDS011;13241;51.208;4.432;2023-05-01T05:55:52;5.53;;;2.17;;
25299;SDS011;13241;51.208;4.432;2023-05-01T05:58:19;2.80;;;1.95;;
25299;SDS011;13241;51.208;4.432;2023-05-01T06:00:48;4.20;;;3.03;;
25299;SDS011;13241;51.208;4.432;2023-05-01T06:03:17;6.15;;;2.60;;
25299;SDS011;13241;51.208;4.432;2023-05-01T06:05:45;4.22;;;2.38;;
25299;SDS011;13241;51.208;4.432;2023-05-01T06:08:13;4.65;;;2.90;;
25299;SDS011;13241;51.208;4.432;2023-05-01T06:10:41;10.60;;;3.10;;
25299;SDS011;13241;51.208;4.432;2023-05-01T06:13:09;4.00;;;2.33;;
25299;SDS011;13241;51.208;4.432;2023-05-01T06:15:46;5.63;;;2.30;;
25299;SDS011;13241;51.208;4.432;2023-05-01T06:18:14;6.97;;;2.85;;
25299;SDS011;13241;51.208;4.432;2023-05-01T06:20:43;4.00;;;2.08;;
25299;SDS011;13241;51.208;4.432;2023-05-01T06:23:10;2.95;;;2.10;;
25299;SDS011;13241;51.208;4.432;2023-05-01T06:25:45;5.47;;;2.33;;
25299;SDS011;13241;51.208;4.432;2023-05-01T06:28:14;4.75;;;2.35;;
25299;SDS011;13241;51.208;4.432;2023-05-01T06:30:41;16.40;;;3.22;;
25299;SDS011;13241;51.208;4.432;2023-05-01T06:33:09;7.75;;;2.90;;
25299;SDS011;13241;51.208;4.432;2023-05-01T06:35:40;5.10;;;3.10;;
25299;SDS011;13241;51.208;4.432;2023-05-01T06:38:07;6.72;;;2.47;;
25299;SDS011;13241;51.208;4.432;2023-05-01T06:40:34;5.30;;;2.15;;
25299;SDS011;13241;51.208;4.432;2023-05-01T06:43:02;6.05;;;2.53;;
25299;SDS011;13241;51.208;4.432;2023-05-01T06:45:29;9.07;;;2.65;;
25299;SDS011;13241;51.208;4.432;2023-05-01T06:47:58;3.42;;;2.22;;
25299;SDS011;13241;51.208;4.432;2023-05-01T06:50:25;8.15;;;2.55;;
25299;SDS011;13241;51.208;4.432;2023-05-01T06:52:54;4.10;;;2.50;;
25299;SDS011;13241;51.208;4.432;2023-05-01T06:55:22;4.85;;;2.65;;
25299;SDS011;13241;51.208;4.432;2023-05-01T06:57:50;2.95;;;2.40;;
25299;SDS011;13241;51.208;4.432;2023-05-01T07:00:17;3.90;;;2.60;;
25299;SDS011;13241;51.208;4.432;2023-05-01T07:02:45;4.85;;;2.88;;
25299;SDS011;13241;51.208;4.432;2023-05-01T07:05:12;3.85;;;2.65;;
25299;SDS011;13241;51.208;4.432;2023-05-01T07:07:41;5.45;;;2.60;;
25299;SDS011;13241;51.208;4.432;2023-05-01T07:10:23;4.85;;;2.17;;
25299;SDS011;13241;51.208;4.432;2023-05-01T07:12:51;5.95;;;2.78;;
25299;SDS011;13241;51.208;4.432;2023-05-01T07:15:18;17.05;;;3.67;;
25299;SDS011;13241;51.208;4.432;2023-05-01T07:17:45;6.60;;;3.05;;
25299;SDS011;13241;51.208;4.432;2023-05-01T07:20:13;5.50;;;2.78;;
25299;SDS011;13241;51.208;4.432;2023-05-01T07:22:43;8.70;;;2.58;;
25299;SDS011;13241;51.208;4.432;2023-05-01T07:25:11;4.35;;;3.15;;
25299;SDS011;13241;51.208;4.432;2023-05-01T07:27:39;8.07;;;3.20;;
25299;SDS011;13241;51.208;4.432;2023-05-01T07:30:06;7.93;;;3.70;;
25299;SDS011;13241;51.208;4.432;2023-05-01T07:32:34;6.18;;;3.70;;
25299;SDS011;13241;51.208;4.432;2023-05-01T07:35:02;4.32;;;3.13;;
25299;SDS011;13241;51.208;4.432;2023-05-01T07:37:29;4.40;;;2.80;;
25299;SDS011;13241;51.208;4.432;2023-05-01T07:39:57;4.50;;;3.08;;
25299;SDS011;13241;51.208;4.432;2023-05-01T07:42:27;7.32;;;3.55;;
25299;SDS011;13241;51.208;4.432;2023-05-01T07:44:54;11.75;;;3.10;;
25299;SDS011;13241;51.208;4.432;2023-05-01T07:47:22;10.60;;;3.55;;
25299;SDS011;13241;51.208;4.432;2023-05-01T07:49:49;7.90;;;3.28;;
25299;SDS011;13241;51.208;4.432;2023-05-01T07:52:17;8.38;;;2.83;;
25299;SDS011;13241;51.208;4.432;2023-05-01T07:54:48;9.52;;;3.50;;
25299;SDS011;13241;51.208;4.432;2023-05-01T07:57:15;6.10;;;2.92;;
25299;SDS011;13241;51.208;4.432;2023-05-01T07:59:43;7.00;;;3.63;;
25299;SDS011;13241;51.208;4.432;2023-05-01T08:02:10;7.05;;;3.65;;
25299;SDS011;13241;51.208;4.432;2023-05-01T08:04:39;6.97;;;4.68;;
25299;SDS011;13241;51.208;4.432;2023-05-01T08:07:07;8.27;;;4.32;;
25299;SDS011;13241;51.208;4.432;2023-05-01T08:09:34;8.35;;;4.10;;
25299;SDS011;13241;51.208;4.432;2023-05-01T08:12:01;7.60;;;4.30;;
25299;SDS011;13241;51.208;4.432;2023-05-01T08:14:29;8.60;;;4.57;;
25299;SDS011;13241;51.208;4.432;2023-05-01T08:16:57;9.55;;;4.60;;
25299;SDS011;13241;51.208;4.432;2023-05-01T08:19:24;7.57;;;4.45;;
25299;SDS011;13241;51.208;4.432;2023-05-01T08:21:53;14.40;;;4.97;;
25299;SDS011;13241;51.208;4.432;2023-05-01T08:24:21;9.88;;;4.70;;
25299;SDS011;13241;51.208;4.432;2023-05-01T08:26:49;7.90;;;4.68;;
25299;SDS011;13241;51.208;4.432;2023-05-01T08:29:16;10.05;;;5.38;;
25299;SDS011;13241;51.208;4.432;2023-05-01T08:31:44;10.70;;;5.80;;
25299;SDS011;13241;51.208;4.432;2023-05-01T08:34:11;6.82;;;4.85;;
25299;SDS011;13241;51.208;4.432;2023-05-01T08:36:38;8.55;;;5.22;;
25299;SDS011;13241;51.208;4.432;2023-05-01T08:39:06;12.95;;;6.03;;
25299;SDS011;13241;51.208;4.432;2023-05-01T08:41:33;9.90;;;5.68;;
25299;SDS011;13241;51.208;4.432;2023-05-01T08:44:02;8.75;;;5.93;;
25299;SDS011;13241;51.208;4.432;2023-05-01T08:46:33;8.50;;;5.22;;
25299;SDS011;13241;51.208;4.432;2023-05-01T08:49:04;9.07;;;5.75;;
25299;SDS011;13241;51.208;4.432;2023-05-01T08:51:32;7.38;;;5.80;;
25299;SDS011;13241;51.208;4.432;2023-05-01T08:54:00;11.13;;;6.55;;
25299;SDS011;13241;51.208;4.432;2023-05-01T08:56:29;12.25;;;6.50;;
25299;SDS011;13241;51.208;4.432;2023-05-01T08:58:59;10.68;;;6.00;;
25299;SDS011;13241;51.208;4.432;2023-05-01T09:01:27;9.77;;;5.65;;
25299;SDS011;13241;51.208;4.432;2023-05-01T09:03:55;16.85;;;6.72;;
25299;SDS011;13241;51.208;4.432;2023-05-01T09:06:23;11.68;;;6.18;;
25299;SDS011;13241;51.208;4.432;2023-05-01T09:08:53;9.95;;;6.10;;
25299;SDS011;13241;51.208;4.432;2023-05-01T09:11:21;10.60;;;6.25;;
25299;SDS011;13241;51.208;4.432;2023-05-01T09:13:49;10.13;;;6.97;;
25299;SDS011;13241;51.208;4.432;2023-05-01T09:16:17;12.75;;;7.97;;
25299;SDS011;13241;51.208;4.432;2023-05-01T09:18:44;12.43;;;7.45;;
25299;SDS011;13241;51.208;4.432;2023-05-01T09:21:12;11.55;;;7.80;;
25299;SDS011;13241;51.208;4.432;2023-05-01T09:23:39;14.55;;;8.13;;
25299;SDS011;13241;51.208;4.432;2023-05-01T09:26:06;12.88;;;8.43;;
25299;SDS011;13241;51.208;4.432;2023-05-01T09:28:40;13.40;;;8.70;;
25299;SDS011;13241;51.208;4.432;2023-05-01T09:31:41;26.52;;;9.00;;
25299;SDS011;13241;51.208;4.432;2023-05-01T09:34:03;12.43;;;8.32;;
25299;SDS011;13241;51.208;4.432;2023-05-01T09:36:31;15.00;;;8.60;;
25299;SDS011;13241;51.208;4.432;2023-05-01T09:39:00;16.25;;;8.43;;
25299;SDS011;13241;51.208;4.432;2023-05-01T09:41:27;15.63;;;9.00;;
25299;SDS011;13241;51.208;4.432;2023-05-01T09:43:58;12.10;;;7.82;;
25299;SDS011;13241;51.208;4.432;2023-05-01T09:46:26;17.40;;;8.80;;
25299;SDS011;13241;51.208;4.432;2023-05-01T09:48:57;14.57;;;8.35;;
25299;SDS011;13241;51.208;4.432;2023-05-01T09:51:26;20.80;;;9.55;;
25299;SDS011;13241;51.208;4.432;2023-05-01T09:53:54;16.48;;;9.07;;
25299;SDS011;13241;51.208;4.432;2023-05-01T09:56:22;18.55;;;10.27;;
25299;SDS011;13241;51.208;4.432;2023-05-01T09:58:49;19.50;;;10.90;;
25299;SDS011;13241;51.208;4.432;2023-05-01T10:01:17;17.42;;;10.02;;
25299;SDS011;13241;51.208;4.432;2023-05-01T10:03:45;18.38;;;9.80;;
25299;SDS011;13241;51.208;4.432;2023-05-01T10:06:26;22.48;;;9.50;;
25299;SDS011;13241;51.208;4.432;2023-05-01T10:08:54;16.33;;;9.65;;
25299;SDS011;13241;51.208;4.432;2023-05-01T10:11:23;17.08;;;9.82;;
25299;SDS011;13241;51.208;4.432;2023-05-01T10:14:06;18.95;;;10.20;;
25299;SDS011;13241;51.208;4.432;2023-05-01T10:16:35;18.55;;;9.85;;
25299;SDS011;13241;51.208;4.432;2023-05-01T10:19:04;20.98;;;10.48;;
25299;SDS011;13241;51.208;4.432;2023-05-01T10:21:32;19.73;;;10.65;;
25299;SDS011;13241;51.208;4.432;2023-05-01T10:24:01;17.83;;;10.20;;
25299;SDS011;13241;51.208;4.432;2023-05-01T10:26:29;25.80;;;10.25;;
25299;SDS011;13241;51.208;4.432;2023-05-01T10:28:56;24.20;;;10.35;;
25299;SDS011;13241;51.208;4.432;2023-05-01T10:31:26;16.65;;;9.52;;
25299;SDS011;13241;51.208;4.432;2023-05-01T10:33:55;17.80;;;10.27;;
25299;SDS011;13241;51.208;4.432;2023-05-01T10:39:04;16.85;;;10.30;;
25299;SDS011;13241;51.208;4.432;2023-05-01T10:44:20;18.80;;;9.35;;
25299;SDS011;13241;51.208;4.432;2023-05-01T10:46:56;18.30;;;9.98;;
25299;SDS011;13241;51.208;4.432;2023-05-01T10:55:39;19.30;;;9.50;;
25299;SDS011;13241;51.208;4.432;2023-05-01T10:58:09;20.17;;;10.27;;
25299;SDS011;13241;51.208;4.432;2023-05-01T11:00:38;16.92;;;10.65;;
25299;SDS011;13241;51.208;4.432;2023-05-01T11:06:11;18.23;;;9.93;;
25299;SDS011;13241;51.208;4.432;2023-05-01T11:08:40;18.15;;;9.93;;
25299;SDS011;13241;51.208;4.432;2023-05-01T11:14:01;23.13;;;11.93;;
25299;SDS011;13241;51.208;4.432;2023-05-01T11:19:04;18.77;;;10.07;;
25299;SDS011;13241;51.208;4.432;2023-05-01T11:21:32;16.40;;;9.35;;
25299;SDS011;13241;51.208;4.432;2023-05-01T11:24:02;23.50;;;9.93;;
25299;SDS011;13241;51.208;4.432;2023-05-01T11:26:30;17.45;;;9.38;;
25299;SDS011;13241;51.208;4.432;2023-05-01T11:28:58;16.75;;;10.10;;
25299;SDS011;13241;51.208;4.432;2023-05-01T11:31:26;17.83;;;10.18;;
25299;SDS011;13241;51.208;4.432;2023-05-01T11:33:54;14.65;;;8.77;;
25299;SDS011;13241;51.208;4.432;2023-05-01T11:36:22;12.65;;;7.93;;
25299;SDS011;13241;51.208;4.432;2023-05-01T11:38:50;15.73;;;9.00;;
25299;SDS011;13241;51.208;4.432;2023-05-01T11:41:21;18.20;;;8.75;;
25299;SDS011;13241;51.208;4.432;2023-05-01T11:43:52;20.77;;;8.15;;
25299;SDS011;13241;51.208;4.432;2023-05-01T11:46:29;16.25;;;8.70;;
25299;SDS011;13241;51.208;4.432;2023-05-01T11:48:57;14.07;;;7.80;;
25299;SDS011;13241;51.208;4.432;2023-05-01T11:51:25;12.40;;;8.40;;
25299;SDS011;13241;51.208;4.432;2023-05-01T11:56:26;19.40;;;9.00;;
25299;SDS011;13241;51.208;4.432;2023-05-01T11:58:54;12.93;;;7.57;;
25299;SDS011;13241;51.208;4.432;2023-05-01T12:01:35;13.77;;;8.60;;
25299;SDS011;13241;51.208;4.432;2023-05-01T12:04:03;11.73;;;7.30;;
25299;SDS011;13241;51.208;4.432;2023-05-01T12:06:43;17.00;;;8.63;;
25299;SDS011;13241;51.208;4.432;2023-05-01T12:09:24;12.05;;;7.97;;
25299;SDS011;13241;51.208;4.432;2023-05-01T12:11:54;12.60;;;8.05;;
25299;SDS011;13241;51.208;4.432;2023-05-01T12:14:25;22.60;;;9.35;;
25299;SDS011;13241;51.208;4.432;2023-05-01T12:16:52;16.65;;;8.35;;
25299;SDS011;13241;51.208;4.432;2023-05-01T12:19:19;14.20;;;8.27;;
25299;SDS011;13241;51.208;4.432;2023-05-01T12:22:03;13.70;;;8.65;;
25299;SDS011;13241;51.208;4.432;2023-05-01T12:27:26;14.82;;;8.88;;
25299;SDS011;13241;51.208;4.432;2023-05-01T12:29:53;15.27;;;8.70;;
25299;SDS011;13241;51.208;4.432;2023-05-01T12:32:27;15.75;;;7.85;;
25299;SDS011;13241;51.208;4.432;2023-05-01T12:34:56;15.80;;;8.00;;
25299;SDS011;13241;51.208;4.432;2023-05-01T12:37:28;13.57;;;7.75;;
25299;SDS011;13241;51.208;4.432;2023-05-01T12:39:56;12.82;;;7.00;;
25299;SDS011;13241;51.208;4.432;2023-05-01T12:42:23;13.75;;;7.90;;
25299;SDS011;13241;51.208;4.432;2023-05-01T12:44:56;16.98;;;9.00;;
25299;SDS011;13241;51.208;4.432;2023-05-01T12:47:25;12.57;;;8.20;;
25299;SDS011;13241;51.208;4.432;2023-05-01T12:49:59;17.10;;;8.10;;
25299;SDS011;13241;51.208;4.432;2023-05-01T12:52:27;18.20;;;8.45;;
25299;SDS011;13241;51.208;4.432;2023-05-01T12:55:02;15.98;;;8.18;;
25299;SDS011;13241;51.208;4.432;2023-05-01T12:57:32;11.73;;;7.15;;
25299;SDS011;13241;51.208;4.432;2023-05-01T13:00:00;16.05;;;8.15;;
25299;SDS011;13241;51.208;4.432;2023-05-01T13:02:31;16.55;;;7.88;;
25299;SDS011;13241;51.208;4.432;2023-05-01T13:05:05;13.73;;;7.65;;
25299;SDS011;13241;51.208;4.432;2023-05-01T13:07:34;16.85;;;7.68;;
25299;SDS011;13241;51.208;4.432;2023-05-01T13:10:02;15.30;;;7.00;;
25299;SDS011;13241;51.208;4.432;2023-05-01T13:12:31;14.02;;;7.05;;
25299;SDS011;13241;51.208;4.432;2023-05-01T13:14:59;18.40;;;7.63;;
25299;SDS011;13241;51.208;4.432;2023-05-01T13:17:30;14.30;;;6.00;;
25299;SDS011;13241;51.208;4.432;2023-05-01T13:20:00;13.32;;;6.68;;
25299;SDS011;13241;51.208;4.432;2023-05-01T13:24:59;14.25;;;8.15;;
25299;SDS011;13241;51.208;4.432;2023-05-01T13:27:28;13.50;;;6.35;;
25299;SDS011;13241;51.208;4.432;2023-05-01T13:29:58;11.73;;;7.57;;
25299;SDS011;13241;51.208;4.432;2023-05-01T13:32:27;12.63;;;7.25;;
25299;SDS011;13241;51.208;4.432;2023-05-01T13:34:58;17.38;;;6.65;;
25299;SDS011;13241;51.208;4.432;2023-05-01T13:37:26;13.80;;;7.32;;
25299;SDS011;13241;51.208;4.432;2023-05-01T13:39:55;12.05;;;6.80;;
25299;SDS011;13241;51.208;4.432;2023-05-01T13:42:26;11.35;;;7.22;;
25299;SDS011;13241;51.208;4.432;2023-05-01T13:44:54;12.75;;;5.97;;
25299;SDS011;13241;51.208;4.432;2023-05-01T13:47:22;9.45;;;5.80;;
25299;SDS011;13241;51.208;4.432;2023-05-01T13:49:53;10.98;;;6.63;;
25299;SDS011;13241;51.208;4.432;2023-05-01T13:52:21;10.93;;;5.75;;
25299;SDS011;13241;51.208;4.432;2023-05-01T13:54:49;11.85;;;5.55;;
25299;SDS011;13241;51.208;4.432;2023-05-01T13:57:19;12.32;;;7.75;;
25299;SDS011;13241;51.208;4.432;2023-05-01T13:59:46;17.00;;;6.45;;
25299;SDS011;13241;51.208;4.432;2023-05-01T14:04:46;10.50;;;6.45;;
25299;SDS011;13241;51.208;4.432;2023-05-01T14:07:20;10.95;;;6.53;;
25299;SDS011;13241;51.208;4.432;2023-05-01T14:09:54;8.20;;;5.40;;
25299;SDS011;13241;51.208;4.432;2023-05-01T14:12:23;11.95;;;5.40;;
25299;SDS011;13241;51.208;4.432;2023-05-01T14:14:53;10.70;;;6.13;;
25299;SDS011;13241;51.208;4.432;2023-05-01T14:17:30;22.73;;;8.35;;
25299;SDS011;13241;51.208;4.432;2023-05-01T14:19:58;13.52;;;6.68;;
25299;SDS011;13241;51.208;4.432;2023-05-01T14:22:29;12.38;;;7.18;;
25299;SDS011;13241;51.208;4.432;2023-05-01T14:24:57;12.73;;;7.20;;
25299;SDS011;13241;51.208;4.432;2023-05-01T14:27:25;12.25;;;6.63;;
25299;SDS011;13241;51.208;4.432;2023-05-01T14:29:53;12.48;;;6.90;;
25299;SDS011;13241;51.208;4.432;2023-05-01T14:32:21;9.80;;;5.65;;
25299;SDS011;13241;51.208;4.432;2023-05-01T14:34:49;13.27;;;6.50;;
25299;SDS011;13241;51.208;4.432;2023-05-01T14:37:16;14.02;;;6.82;;
25299;SDS011;13241;51.208;4.432;2023-05-01T14:39:43;13.43;;;6.75;;
25299;SDS011;13241;51.208;4.432;2023-05-01T14:42:10;10.38;;;5.57;;
25299;SDS011;13241;51.208;4.432;2023-05-01T14:44:39;12.25;;;6.60;;
25299;SDS011;13241;51.208;4.432;2023-05-01T14:47:08;5.72;;;3.42;;
25299;SDS011;13241;51.208;4.432;2023-05-01T14:49:35;14.75;;;6.28;;
25299;SDS011;13241;51.208;4.432;2023-05-01T14:52:03;11.50;;;6.28;;
25299;SDS011;13241;51.208;4.432;2023-05-01T14:54:33;12.90;;;6.78;;
25299;SDS011;13241;51.208;4.432;2023-05-01T14:57:11;13.27;;;6.13;;
25299;SDS011;13241;51.208;4.432;2023-05-01T14:59:38;19.85;;;6.70;;
25299;SDS011;13241;51.208;4.432;2023-05-01T15:02:06;13.90;;;6.88;;
25299;SDS011;13241;51.208;4.432;2023-05-01T15:04:33;11.98;;;5.97;;
25299;SDS011;13241;51.208;4.432;2023-05-01T15:07:01;18.80;;;8.55;;
25299;SDS011;13241;51.208;4.432;2023-05-01T15:09:30;17.77;;;8.48;;
25299;SDS011;13241;51.208;4.432;2023-05-01T15:11:58;15.43;;;9.00;;
25299;SDS011;13241;51.208;4.432;2023-05-01T15:14:25;23.92;;;9.95;;
25299;SDS011;13241;51.208;4.432;2023-05-01T15:16:54;20.02;;;10.13;;
25299;SDS011;13241;51.208;4.432;2023-05-01T15:19:22;16.00;;;8.30;;
25299;SDS011;13241;51.208;4.432;2023-05-01T15:21:50;16.00;;;8.02;;
25299;SDS011;13241;51.208;4.432;2023-05-01T15:24:17;20.15;;;10.60;;
25299;SDS011;13241;51.208;4.432;2023-05-01T15:26:44;19.45;;;11.27;;
25299;SDS011;13241;51.208;4.432;2023-05-01T15:29:12;19.17;;;9.43;;
25299;SDS011;13241;51.208;4.432;2023-05-01T15:31:39;22.73;;;10.63;;
25299;SDS011;13241;51.208;4.432;2023-05-01T15:34:07;24.95;;;12.50;;